Time;durP1;ratioP1;P1;durP2;ratioP2;P2;SDS_P1;SDS_P2;PMS_P1;PMS_P2;Temp;Humidity;BMP_temperature;BMP_pressure;BME280_temperature;BME280_humidity;BME280_pressure;Samples;Min_cycle;Max_cycle;Signal;HPM_P1;HPM_P2
2022/11/05 00:19:06;;;;;;;4.70;4.00;;;10.60;46.80;;;;;;10416840;28;20244;-68
2022/11/05 00:29:34;;;;;;;5.13;4.70;;;10.70;47.20;;;;;;10397823;28;20221;-68
2022/11/05 00:34:37;;;;;;;4.53;4.13;;;10.80;47.20;;;;;;10420578;28;20738;-68
2022/11/05 00:39:42;;;;;;;5.13;4.63;;;10.80;47.10;;;;;;10417110;28;20283;-68
2022/11/05 00:45:03;;;;;;;6.03;4.73;;;10.90;47.30;;;;;;10419207;28;20245;-68
2022/11/05 00:50:09;;;;;;;5.60;4.73;;;11.00;47.00;;;;;;10414635;28;20234;-68
2022/11/05 00:55:13;;;;;;;5.50;5.10;;;11.10;46.80;;;;;;10418735;28;20682;-68
2022/11/05 01:00:17;;;;;;;5.87;4.90;;;11.00;46.90;;;;;;10418863;28;20229;-68
2022/11/05 01:05:20;;;;;;;5.30;4.80;;;11.10;47.00;;;;;;10425453;28;20236;-68
2022/11/05 01:10:25;;;;;;;5.03;4.57;;;11.10;47.20;;;;;;10422444;28;20237;-68
2022/11/05 01:15:28;;;;;;;5.10;4.70;;;11.10;47.20;;;;;;10423560;28;20237;-68
2022/11/05 01:20:32;;;;;;;5.30;4.83;;;11.10;47.20;;;;;;10419740;28;20229;-68
2022/11/05 01:25:36;;;;;;;4.67;4.27;;;11.20;47.20;;;;;;10420454;28;20247;-68
2022/11/05 01:30:39;;;;;;;5.60;5.10;;;11.20;47.30;;;;;;10424179;28;20228;-68
2022/11/05 01:35:42;;;;;;;5.40;4.90;;;11.20;47.30;;;;;;10415255;28;20703;-68
2022/11/05 01:40:47;;;;;;;5.47;4.97;;;11.30;47.30;;;;;;10415371;28;20225;-68
2022/11/05 01:45:52;;;;;;;4.80;4.40;;;11.30;47.00;;;;;;10419828;28;20434;-68
2022/11/05 01:50:59;;;;;;;5.30;4.80;;;11.30;47.00;;;;;;10419059;28;20271;-68
2022/11/05 01:56:06;;;;;;;4.87;4.23;;;11.20;47.30;;;;;;10417250;28;20232;-68
2022/11/05 02:01:10;;;;;;;5.83;4.53;;;11.20;47.40;;;;;;10416878;28;20244;-68
2022/11/05 02:06:15;;;;;;;4.47;4.17;;;11.20;47.40;;;;;;10425194;28;20225;-68
2022/11/05 02:11:20;;;;;;;5.57;4.67;;;11.20;47.60;;;;;;10426179;28;20275;-68
2022/11/05 02:16:36;;;;;;;4.53;4.13;;;11.20;47.50;;;;;;10426910;28;20715;-68
2022/11/05 02:22:21;;;;;;;5.13;4.70;;;11.20;47.80;;;;;;10423557;28;20240;-68
2022/11/05 02:27:48;;;;;;;4.17;3.80;;;11.20;48.10;;;;;;10421170;28;20671;-68
2022/11/05 02:33:23;;;;;;;4.67;4.30;;;11.20;48.10;;;;;;10423713;28;20237;-68
2022/11/05 02:38:39;;;;;;;4.90;4.50;;;11.20;48.00;;;;;;10390170;28;20232;-68
2022/11/05 02:43:52;;;;;;;4.60;4.20;;;11.20;48.00;;;;;;10423440;28;20628;-68
2022/11/05 02:49:01;;;;;;;5.40;4.43;;;11.20;48.00;;;;;;10424808;28;20225;-68
2022/11/05 02:54:12;;;;;;;6.23;5.70;;;11.20;48.00;;;;;;10419442;28;20283;-68
2022/11/05 02:59:15;;;;;;;5.63;5.13;;;11.20;48.30;;;;;;10429007;28;20232;-68
2022/11/05 03:04:21;;;;;;;5.37;4.90;;;11.20;47.90;;;;;;10419331;28;20233;-68
2022/11/05 03:09:40;;;;;;;4.70;4.30;;;11.20;48.20;;;;;;10423701;28;20994;-68
2022/11/05 03:14:50;;;;;;;5.60;5.10;;;11.20;48.60;;;;;;10423149;28;20225;-68
2022/11/05 03:20:01;;;;;;;5.93;5.30;;;11.20;48.30;;;;;;10423124;28;20229;-68
2022/11/05 03:25:13;;;;;;;5.03;4.57;;;11.30;48.50;;;;;;10419137;28;20229;-68
2022/11/05 03:30:18;;;;;;;5.37;4.87;;;11.30;48.70;;;;;;10420234;28;20232;-68
2022/11/05 03:35:25;;;;;;;7.77;6.97;;;11.30;48.30;;;;;;10420598;28;20275;-68
2022/11/05 03:40:34;;;;;;;7.20;6.60;;;11.30;48.40;;;;;;10421348;28;20233;-68
2022/11/05 03:45:41;;;;;;;6.83;6.33;;;11.30;48.70;;;;;;10420930;28;20233;-68
2022/11/05 03:50:53;;;;;;;6.83;6.23;;;11.30;48.50;;;;;;10418090;28;20225;-68
2022/11/05 03:56:02;;;;;;;6.37;5.87;;;11.40;48.90;;;;;;10426526;28;20263;-68
2022/11/05 04:01:05;;;;;;;7.13;6.43;;;11.30;48.80;;;;;;10422818;28;20613;-68
2022/11/05 04:17:08;;;;;;;7.20;6.60;;;11.30;48.30;;;;;;10419195;28;20240;-68
2022/11/05 04:27:33;;;;;;;7.67;7.07;;;11.20;48.40;;;;;;10422467;28;20240;-68
2022/11/05 04:32:36;;;;;;;6.80;6.17;;;11.20;48.70;;;;;;10422722;28;20237;-68
2022/11/05 04:37:39;;;;;;;5.97;5.47;;;11.30;48.60;;;;;;10419478;28;20245;-68
2022/11/05 04:42:44;;;;;;;6.27;5.73;;;11.20;48.60;;;;;;10422792;28;20232;-68
2022/11/05 04:47:47;;;;;;;6.57;6.03;;;11.30;48.90;;;;;;10422369;28;20237;-68
2022/11/05 04:52:50;;;;;;;6.60;6.00;;;11.30;48.70;;;;;;10417322;28;20229;-68
2022/11/05 04:57:56;;;;;;;7.30;6.70;;;11.30;48.40;;;;;;10426292;28;20805;-68
2022/11/05 05:02:59;;;;;;;6.97;6.43;;;11.30;48.50;;;;;;10420753;28;20734;-69
2022/11/05 05:08:02;;;;;;;7.33;6.63;;;11.30;48.30;;;;;;10414824;28;20243;-69
2022/11/05 05:13:08;;;;;;;6.50;6.00;;;11.30;48.40;;;;;;10412364;28;20742;-69
2022/11/05 05:18:12;;;;;;;6.90;6.27;;;11.30;48.50;;;;;;10415936;28;20615;-68
2022/11/05 05:23:15;;;;;;;7.00;6.40;;;11.30;48.50;;;;;;10418029;28;20248;-69
2022/11/05 05:28:19;;;;;;;6.53;6.03;;;11.30;48.60;;;;;;10422727;28;20245;-67
2022/11/05 05:33:22;;;;;;;6.73;6.13;;;11.30;48.90;;;;;;10420228;28;20237;-73
2022/11/05 05:38:26;;;;;;;6.83;6.23;;;11.30;48.60;;;;;;10421099;28;20232;-73
2022/11/05 05:43:31;;;;;;;6.87;6.27;;;11.30;48.70;;;;;;10431123;28;20237;-73
2022/11/05 05:48:34;;;;;;;6.77;6.07;;;11.30;48.90;;;;;;10432363;28;20237;-66
2022/11/05 05:53:38;;;;;;;6.80;6.30;;;11.30;49.60;;;;;;10436065;28;20916;-67
2022/11/05 05:58:42;;;;;;;6.33;5.83;;;11.30;48.80;;;;;;10433172;28;20232;-73
2022/11/05 06:03:46;;;;;;;6.50;5.93;;;11.30;49.00;;;;;;10430685;28;20286;-73
2022/11/05 06:08:49;;;;;;;7.47;6.33;;;11.30;48.90;;;;;;10432066;28;20229;-73
2022/11/05 06:13:53;;;;;;;7.17;6.60;;;11.30;48.80;;;;;;10433104;28;20232;-73
2022/11/05 06:18:56;;;;;;;7.10;6.40;;;11.30;49.10;;;;;;10436045;28;20229;-68
2022/11/05 06:24:01;;;;;;;6.50;5.90;;;11.30;49.00;;;;;;10430455;28;20299;-69
2022/11/05 06:29:06;;;;;;;7.33;6.73;;;11.30;49.20;;;;;;10430754;28;20232;-69
2022/11/05 06:34:09;;;;;;;10.70;9.70;;;11.40;49.60;;;;;;10433391;28;20240;-69
2022/11/05 06:39:12;;;;;;;7.53;6.93;;;11.40;49.40;;;;;;10431128;28;20237;-73
2022/11/05 06:44:17;;;;;;;7.00;6.30;;;11.40;49.60;;;;;;10431510;28;20232;-73
2022/11/05 06:49:23;;;;;;;7.10;6.50;;;11.50;49.90;;;;;;10428835;28;20233;-73
2022/11/05 06:54:26;;;;;;;5.93;5.27;;;11.50;49.50;;;;;;10429657;28;20236;-73
2022/11/05 06:59:31;;;;;;;7.73;7.03;;;11.60;49.60;;;;;;10424240;28;20229;-73
2022/11/05 07:04:34;;;;;;;8.43;7.63;;;11.70;49.90;;;;;;10425062;28;20818;-73
2022/11/05 07:09:39;;;;;;;7.03;6.40;;;11.70;49.40;;;;;;10427143;28;20224;-73
2022/11/05 07:14:43;;;;;;;9.97;8.97;;;11.80;49.50;;;;;;10425508;28;20292;-73
2022/11/05 07:19:46;;;;;;;11.13;10.03;;;11.80;49.80;;;;;;10422013;28;20263;-73
2022/11/05 07:24:50;;;;;;;21.10;16.63;;;11.80;49.70;;;;;;10421130;28;20741;-74
2022/11/05 07:29:54;;;;;;;11.17;9.97;;;11.90;49.80;;;;;;10421289;28;20237;-73
2022/11/05 07:34:57;;;;;;;9.50;8.47;;;11.90;49.90;;;;;;10422099;28;20738;-73
2022/11/05 07:40:00;;;;;;;14.33;12.93;;;12.00;49.80;;;;;;10421247;28;20232;-73
2022/11/05 07:45:06;;;;;;;8.90;8.10;;;12.00;49.80;;;;;;10422377;28;20623;-72
2022/11/05 07:50:09;;;;;;;8.50;7.80;;;12.00;50.00;;;;;;10423098;28;20233;-73
2022/11/05 07:55:13;;;;;;;7.97;7.17;;;12.00;49.90;;;;;;10420178;28;20241;-73
2022/11/05 08:00:20;;;;;;;7.63;7.00;;;12.10;49.90;;;;;;10425106;28;20282;-73
2022/11/05 08:05:23;;;;;;;6.97;6.37;;;12.10;50.00;;;;;;10421480;28;20241;-72
2022/11/05 08:10:27;;;;;;;8.47;6.37;;;12.20;49.70;;;;;;10425641;28;20300;-73
2022/11/05 08:15:32;;;;;;;7.00;6.30;;;12.20;49.80;;;;;;10424911;28;20291;-73
2022/11/05 08:20:36;;;;;;;7.03;6.47;;;12.20;49.80;;;;;;10427763;28;20236;-73
2022/11/05 08:25:39;;;;;;;7.03;6.33;;;12.20;49.60;;;;;;10421132;28;20612;-75
2022/11/05 08:30:44;;;;;;;7.17;6.47;;;12.30;49.50;;;;;;10421115;28;20737;-74
2022/11/05 08:35:48;;;;;;;6.83;6.27;;;12.30;49.60;;;;;;10417148;28;20233;-74
2022/11/05 08:40:56;;;;;;;7.03;6.33;;;12.30;49.50;;;;;;10418876;28;20230;-74
2022/11/05 08:46:01;;;;;;;6.50;5.90;;;12.30;49.70;;;;;;10419360;28;20236;-74
2022/11/05 08:51:04;;;;;;;5.70;5.20;;;12.20;49.60;;;;;;10420513;28;20228;-74
2022/11/05 08:56:08;;;;;;;6.03;5.50;;;12.20;49.40;;;;;;10422393;28;20230;-73
2022/11/05 09:01:13;;;;;;;5.63;5.20;;;12.30;49.50;;;;;;10423023;28;20651;-74
2022/11/05 09:06:16;;;;;;;5.73;5.23;;;12.30;50.00;;;;;;10419721;28;20320;-74
2022/11/05 09:11:19;;;;;;;5.20;4.80;;;12.30;49.80;;;;;;10423575;28;21536;-74
2022/11/05 09:16:25;;;;;;;5.07;4.67;;;12.30;50.10;;;;;;10419614;28;20236;-74
2022/11/05 09:21:29;;;;;;;4.63;4.23;;;12.40;50.60;;;;;;10423513;28;20711;-80
2022/11/05 09:26:32;;;;;;;4.60;4.20;;;12.40;50.40;;;;;;10419017;28;20688;-75
2022/11/05 09:31:36;;;;;;;4.33;4.03;;;12.50;50.30;;;;;;10424824;28;20274;-75
2022/11/05 09:36:39;;;;;;;4.23;3.93;;;12.50;50.10;;;;;;10415507;28;20233;-75
2022/11/05 09:41:43;;;;;;;5.07;4.67;;;12.60;49.80;;;;;;10412800;28;20234;-74
2022/11/05 09:46:51;;;;;;;4.57;4.17;;;12.60;50.30;;;;;;10416718;28;20225;-75
2022/11/05 09:51:57;;;;;;;4.23;3.93;;;12.60;50.60;;;;;;10401663;28;20719;-74
2022/11/05 09:57:02;;;;;;;3.97;3.67;;;12.70;50.40;;;;;;10409097;28;20240;-74
2022/11/05 10:02:21;;;;;;;3.80;3.37;;;12.80;50.90;;;;;;10405884;28;20243;-74
2022/11/05 10:07:27;;;;;;;4.00;3.50;;;12.80;50.40;;;;;;10409812;28;20287;-75
2022/11/05 10:12:35;;;;;;;3.40;3.20;;;12.90;50.20;;;;;;10411919;28;20852;-73
2022/11/05 10:17:46;;;;;;;2.93;2.73;;;13.00;50.10;;;;;;10402010;28;20237;-74
2022/11/05 10:22:54;;;;;;;2.80;2.60;;;13.00;50.00;;;;;;10409428;28;20233;-73
2022/11/05 10:27:59;;;;;;;2.80;2.60;;;13.00;49.50;;;;;;10413013;28;20989;-74
2022/11/05 10:33:06;;;;;;;2.53;2.33;;;13.00;49.70;;;;;;10415868;28;20228;-72
2022/11/05 10:38:14;;;;;;;2.73;2.10;;;13.10;50.20;;;;;;10416819;28;20242;-73
2022/11/05 10:43:24;;;;;;;2.30;2.10;;;13.10;49.40;;;;;;10413941;28;20241;-74
2022/11/05 10:48:44;;;;;;;3.20;3.00;;;13.20;49.40;;;;;;10413957;28;20228;-74
2022/11/05 10:53:53;;;;;;;4.03;3.73;;;13.20;49.50;;;;;;10411382;28;20619;-74
2022/11/05 10:59:05;;;;;;;4.43;4.10;;;13.20;49.30;;;;;;10416345;28;20230;-73
2022/11/05 11:04:23;;;;;;;4.30;4.00;;;13.30;49.50;;;;;;10408211;28;20749;-73
2022/11/05 11:09:30;;;;;;;4.80;4.40;;;13.30;49.00;;;;;;10415349;28;20766;-75
2022/11/05 11:14:34;;;;;;;4.90;4.50;;;13.30;49.50;;;;;;10414228;28;20277;-74
2022/11/05 11:19:38;;;;;;;4.83;4.40;;;13.30;49.70;;;;;;10411232;28;20619;-73
2022/11/05 11:24:43;;;;;;;5.30;4.90;;;13.40;49.50;;;;;;10415264;28;20297;-73
2022/11/05 11:29:52;;;;;;;4.70;4.40;;;13.50;49.20;;;;;;10413659;28;20256;-74
2022/11/05 11:34:57;;;;;;;4.53;4.20;;;13.50;48.90;;;;;;10409569;28;20610;-74
2022/11/05 11:40:04;;;;;;;4.93;4.60;;;13.50;49.10;;;;;;10411528;28;20282;-74
2022/11/05 11:45:16;;;;;;;4.47;4.17;;;13.60;49.30;;;;;;10410628;28;20234;-73
2022/11/05 11:50:37;;;;;;;4.67;4.30;;;13.60;49.10;;;;;;10414144;28;20233;-74
2022/11/05 11:55:40;;;;;;;4.30;4.00;;;13.70;49.10;;;;;;10412424;28;20656;-74
2022/11/05 12:00:48;;;;;;;3.43;3.23;;;13.70;49.10;;;;;;10399994;28;20235;-74
2022/11/05 12:06:01;;;;;;;3.60;3.30;;;13.70;49.10;;;;;;10423542;28;20232;-75
2022/11/05 12:11:11;;;;;;;3.30;3.10;;;13.80;49.10;;;;;;10412638;28;20217;-74
2022/11/05 12:16:25;;;;;;;4.30;4.00;;;13.80;49.10;;;;;;10409669;28;20288;-73
2022/11/05 12:21:37;;;;;;;3.80;3.50;;;13.90;48.90;;;;;;10409038;28;20304;-74
2022/11/05 12:27:10;;;;;;;3.90;3.60;;;13.90;48.60;;;;;;10410920;28;20229;-74
2022/11/05 12:32:32;;;;;;;3.70;3.40;;;13.90;48.60;;;;;;10410172;28;20282;-74
2022/11/05 12:37:45;;;;;;;3.73;3.43;;;13.80;50.10;;;;;;10408445;28;20283;-72
2022/11/05 12:43:02;;;;;;;4.10;3.80;;;13.80;49.20;;;;;;10414013;28;20229;-72
2022/11/05 12:48:25;;;;;;;4.10;3.80;;;13.80;49.30;;;;;;10408329;28;20235;-73
2022/11/05 12:53:52;;;;;;;4.07;3.77;;;13.80;49.20;;;;;;10407749;28;20247;-72
2022/11/05 12:59:01;;;;;;;2.53;2.43;;;13.80;49.20;;;;;;10412154;28;20233;-72
2022/11/05 13:04:10;;;;;;;2.27;2.07;;;13.80;49.00;;;;;;10412827;28;20220;-72
2022/11/05 13:09:19;;;;;;;2.20;2.00;;;13.80;49.20;;;;;;10414113;28;20232;-72
2022/11/05 13:14:26;;;;;;;2.07;1.97;;;13.80;49.00;;;;;;10407531;28;20272;-72
2022/11/05 13:19:33;;;;;;;2.10;2.00;;;13.80;49.70;;;;;;10410982;28;20248;-72
2022/11/05 13:24:42;;;;;;;3.27;2.97;;;13.80;49.40;;;;;;10405654;28;21355;-72
2022/11/05 13:29:49;;;;;;;3.90;3.60;;;13.90;49.30;;;;;;10409888;28;20233;-72
2022/11/05 13:34:55;;;;;;;3.93;3.53;;;13.90;49.10;;;;;;10404766;28;20226;-73
2022/11/05 13:40:06;;;;;;;3.83;3.50;;;13.90;48.70;;;;;;10410680;28;20888;-72
2022/11/05 13:45:39;;;;;;;3.40;3.10;;;13.90;48.80;;;;;;10409165;28;20581;-71
2022/11/05 13:51:12;;;;;;;3.80;3.50;;;13.80;49.20;;;;;;10406451;28;20307;-71
2022/11/05 13:56:29;;;;;;;3.17;2.97;;;13.80;49.30;;;;;;10394603;28;20236;-71
2022/11/05 14:01:44;;;;;;;3.43;3.23;;;13.90;49.50;;;;;;10409013;28;20237;-72
2022/11/05 14:06:47;;;;;;;3.50;3.20;;;13.90;49.30;;;;;;10422040;28;20332;-72
2022/11/05 14:11:56;;;;;;;3.10;2.90;;;14.00;49.30;;;;;;10417121;28;20275;-72
2022/11/05 14:17:15;;;;;;;2.90;2.70;;;13.90;49.00;;;;;;10414747;28;20274;-72
2022/11/05 14:22:45;;;;;;;4.63;4.17;;;13.90;48.90;;;;;;10415489;28;20244;-72
2022/11/05 14:27:52;;;;;;;6.67;5.37;;;13.90;49.30;;;;;;10404337;28;20280;-73
2022/11/05 14:33:03;;;;;;;4.00;3.70;;;14.00;49.70;;;;;;10413522;28;20229;-73
2022/11/05 14:38:19;;;;;;;3.93;3.63;;;14.00;49.80;;;;;;10414315;28;20224;-72
2022/11/05 14:43:27;;;;;;;4.90;4.40;;;14.00;49.70;;;;;;10416470;28;20601;-72
2022/11/05 14:48:39;;;;;;;5.87;5.37;;;14.00;49.40;;;;;;10417378;28;20910;-73
2022/11/05 14:53:42;;;;;;;5.80;5.40;;;14.10;49.40;;;;;;10414886;28;20275;-72
2022/11/05 14:58:47;;;;;;;6.17;5.10;;;14.00;48.80;;;;;;10410735;28;20232;-72
2022/11/05 15:04:15;;;;;;;3.90;3.60;;;13.90;49.00;;;;;;10416938;28;20804;-73
2022/11/05 15:09:26;;;;;;;3.60;3.40;;;13.90;49.30;;;;;;10412584;28;20234;-72
2022/11/05 15:14:36;;;;;;;3.40;3.13;;;13.80;49.30;;;;;;10413180;28;20294;-72
2022/11/05 15:19:41;;;;;;;3.80;3.50;;;13.80;49.50;;;;;;10414500;28;20229;-72
2022/11/05 15:24:44;;;;;;;3.47;3.27;;;13.80;49.20;;;;;;10415547;28;20230;-72
2022/11/05 15:29:49;;;;;;;3.00;2.80;;;13.90;49.40;;;;;;10416426;28;20237;-72
2022/11/05 15:34:53;;;;;;;5.13;4.63;;;13.90;49.50;;;;;;10413644;28;20236;-72
2022/11/05 15:39:56;;;;;;;5.67;4.80;;;14.00;49.40;;;;;;10412415;28;20234;-72
2022/11/05 15:45:01;;;;;;;3.43;2.77;;;14.00;49.00;;;;;;10401666;28;20283;-72
2022/11/05 15:50:11;;;;;;;2.60;2.43;;;13.90;48.80;;;;;;10405462;28;20229;-73
2022/11/05 15:55:22;;;;;;;7.13;5.73;;;13.90;48.50;;;;;;10407143;28;20614;-72
2022/11/05 16:00:29;;;;;;;3.90;2.70;;;13.80;48.10;;;;;;10407499;28;20233;-72
2022/11/05 16:05:35;;;;;;;2.57;2.37;;;13.80;48.00;;;;;;10408036;28;20711;-73
2022/11/05 16:10:39;;;;;;;2.40;2.30;;;13.70;48.20;;;;;;10410483;28;20234;-73
2022/11/05 16:15:53;;;;;;;2.40;2.20;;;13.70;48.50;;;;;;10404452;28;20284;-73
2022/11/05 16:21:01;;;;;;;2.10;2.00;;;13.70;48.60;;;;;;10406536;28;20240;-72
2022/11/05 16:26:04;;;;;;;2.60;2.40;;;13.70;48.80;;;;;;10409765;28;20259;-72
2022/11/05 16:31:09;;;;;;;2.43;2.33;;;13.70;48.60;;;;;;10410136;28;20221;-72
2022/11/05 16:36:12;;;;;;;2.40;2.20;;;13.70;48.50;;;;;;10416135;28;20715;-73
2022/11/05 16:41:17;;;;;;;5.20;4.70;;;13.70;48.70;;;;;;10411480;28;20907;-72
2022/11/05 16:46:22;;;;;;;8.87;7.97;;;13.70;48.60;;;;;;10410519;28;20226;-73
2022/11/05 16:51:27;;;;;;;6.20;5.70;;;13.70;48.30;;;;;;10409604;28;20228;-73
2022/11/05 16:56:31;;;;;;;5.13;4.63;;;13.70;48.00;;;;;;10409881;28;20237;-72
2022/11/05 17:01:39;;;;;;;5.63;4.70;;;13.60;48.10;;;;;;10412460;28;20605;-72
2022/11/05 17:06:45;;;;;;;4.47;4.07;;;13.40;48.00;;;;;;10415634;28;20971;-73
2022/11/05 17:11:48;;;;;;;6.53;5.87;;;13.40;48.40;;;;;;10412308;28;20233;-72
2022/11/05 17:16:53;;;;;;;8.10;6.07;;;13.30;48.80;;;;;;10410956;28;20275;-72
2022/11/05 17:21:56;;;;;;;8.17;7.37;;;13.40;48.90;;;;;;10409793;28;20290;-72
2022/11/05 17:26:59;;;;;;;15.77;11.50;;;13.40;48.90;;;;;;10408981;28;20268;-72
2022/11/05 17:32:05;;;;;;;29.67;18.17;;;13.40;48.90;;;;;;10413664;28;20564;-71
2022/11/05 17:37:08;;;;;;;9.27;7.83;;;13.40;48.90;;;;;;10408392;28;20233;-72
2022/11/05 17:42:11;;;;;;;6.67;6.07;;;13.40;48.50;;;;;;10411942;28;20582;-72
2022/11/05 17:47:16;;;;;;;6.80;6.20;;;13.40;48.40;;;;;;10410200;28;20233;-72
2022/11/05 17:52:19;;;;;;;6.30;5.70;;;13.40;48.30;;;;;;10406225;28;22669;-72
2022/11/05 17:57:22;;;;;;;7.00;5.57;;;13.40;48.20;;;;;;10407983;28;20234;-72
2022/11/05 18:02:28;;;;;;;5.33;4.83;;;13.30;48.30;;;;;;10408658;28;20245;-72
2022/11/05 18:07:31;;;;;;;4.70;4.00;;;13.30;48.70;;;;;;10408370;28;20315;-72
2022/11/05 18:12:34;;;;;;;4.27;3.97;;;13.30;48.80;;;;;;10410463;28;20299;-72
2022/11/05 18:17:39;;;;;;;4.20;3.90;;;13.30;48.30;;;;;;10408614;28;20719;-72
2022/11/05 18:22:43;;;;;;;5.53;5.03;;;13.20;48.20;;;;;;10407748;28;20710;-72
2022/11/05 18:27:46;;;;;;;8.40;7.50;;;13.20;48.30;;;;;;10410793;28;20229;-73
2022/11/05 18:32:50;;;;;;;10.23;9.13;;;13.10;48.20;;;;;;10411456;28;20699;-73
2022/11/05 18:37:54;;;;;;;10.50;8.90;;;13.10;48.60;;;;;;10407934;28;20233;-73
2022/11/05 18:42:57;;;;;;;10.70;9.60;;;13.00;48.40;;;;;;10412777;28;20286;-73
2022/11/05 18:48:02;;;;;;;10.97;8.70;;;12.90;48.40;;;;;;10413348;28;20992;-73
2022/11/05 18:53:05;;;;;;;9.57;8.67;;;12.90;48.40;;;;;;10418334;28;20230;-72
2022/11/05 18:58:08;;;;;;;8.90;7.67;;;12.80;48.30;;;;;;10413386;28;20237;-73
2022/11/05 19:03:13;;;;;;;7.37;6.67;;;12.80;48.40;;;;;;10416936;28;20287;-73
2022/11/05 19:08:16;;;;;;;11.30;10.10;;;12.70;48.90;;;;;;10419201;28;20244;-67
2022/11/05 19:13:19;;;;;;;10.93;9.83;;;12.70;48.70;;;;;;10414085;28;20229;-70
2022/11/05 19:18:24;;;;;;;9.03;8.23;;;12.70;48.70;;;;;;10414602;28;20240;-67
2022/11/05 19:23:27;;;;;;;7.90;7.20;;;12.70;48.70;;;;;;10413989;28;20614;-73
2022/11/05 19:28:30;;;;;;;6.87;6.27;;;12.70;48.70;;;;;;10412190;28;20233;-73
2022/11/05 19:33:34;;;;;;;6.53;5.97;;;12.70;48.60;;;;;;10412998;28;20228;-73
2022/11/05 19:38:38;;;;;;;5.57;5.07;;;12.70;48.50;;;;;;10410150;28;20236;-68
2022/11/05 19:43:42;;;;;;;5.70;5.30;;;12.70;48.20;;;;;;10412619;28;20233;-69
2022/11/05 19:48:47;;;;;;;5.57;5.17;;;12.70;48.20;;;;;;10408781;28;20237;-68
2022/11/05 19:53:51;;;;;;;5.67;5.17;;;12.70;48.20;;;;;;10415431;28;21115;-69
2022/11/05 19:58:54;;;;;;;6.13;5.63;;;12.60;48.20;;;;;;10414788;28;20229;-69
2022/11/05 20:04:01;;;;;;;5.77;5.33;;;12.60;48.20;;;;;;10414108;28;20255;-70
2022/11/05 20:09:09;;;;;;;6.63;6.03;;;12.60;48.90;;;;;;10398381;28;20241;-69
2022/11/05 20:14:28;;;;;;;6.80;5.80;;;12.50;47.90;;;;;;10406356;28;20272;-69
2022/11/05 20:19:33;;;;;;;6.63;6.13;;;12.50;47.90;;;;;;10404702;28;20229;-69
2022/11/05 20:24:37;;;;;;;7.00;6.40;;;12.50;47.60;;;;;;10406746;28;20852;-69
2022/11/05 20:29:40;;;;;;;7.47;6.77;;;12.30;47.30;;;;;;10400927;28;20213;-69
2022/11/05 20:34:44;;;;;;;6.60;6.00;;;12.20;47.40;;;;;;10400255;28;20234;-69
2022/11/05 20:39:48;;;;;;;7.50;6.90;;;12.10;47.50;;;;;;10398977;28;20829;-69
2022/11/05 20:44:51;;;;;;;7.43;6.73;;;12.10;47.70;;;;;;10395551;28;20238;-69
2022/11/05 20:49:57;;;;;;;7.80;7.03;;;12.00;47.60;;;;;;10401860;28;22041;-69
2022/11/05 20:55:01;;;;;;;6.50;5.90;;;12.00;47.60;;;;;;10406081;28;20233;-69
2022/11/05 21:00:06;;;;;;;12.97;11.57;;;12.00;47.60;;;;;;10403503;28;20595;-69
2022/11/05 21:05:11;;;;;;;9.17;8.23;;;12.00;47.60;;;;;;10404602;28;20337;-69
2022/11/05 21:10:14;;;;;;;9.40;8.40;;;11.90;47.60;;;;;;10405127;28;20229;-69
2022/11/05 21:15:19;;;;;;;7.67;7.00;;;11.90;47.50;;;;;;10405556;28;20248;-69
2022/11/05 21:20:23;;;;;;;7.90;7.20;;;11.90;47.30;;;;;;10409010;28;20676;-69
2022/11/05 21:25:27;;;;;;;8.00;7.20;;;11.90;47.20;;;;;;10403720;28;20248;-69
2022/11/05 21:30:30;;;;;;;7.90;7.17;;;11.80;47.30;;;;;;10410268;28;20229;-69
2022/11/05 21:35:39;;;;;;;7.10;6.50;;;11.70;47.30;;;;;;10404369;28;20680;-70
2022/11/05 21:40:43;;;;;;;9.20;8.30;;;11.70;46.70;;;;;;10402703;28;20240;-69
2022/11/05 21:45:46;;;;;;;7.70;7.10;;;11.70;46.70;;;;;;10404240;28;20235;-69
2022/11/05 22:01:59;;;;;;;12.53;11.47;;;11.40;46.30;;;;;;10384047;28;20654;-69
2022/11/05 22:07:06;;;;;;;22.60;20.60;;;11.40;46.40;;;;;;10407027;28;20240;-69
2022/11/05 22:12:10;;;;;;;18.37;16.77;;;11.30;46.30;;;;;;10406283;28;20612;-73
2022/11/05 22:17:13;;;;;;;15.07;13.73;;;11.20;46.40;;;;;;10406905;28;20232;-68
2022/11/05 22:22:18;;;;;;;12.20;11.00;;;11.20;46.90;;;;;;10411064;28;20613;-68
2022/11/05 22:27:21;;;;;;;11.67;10.67;;;11.10;45.90;;;;;;10415447;28;20232;-70
2022/11/05 22:32:24;;;;;;;8.80;8.00;;;11.10;46.10;;;;;;10418742;28;20240;-69
2022/11/05 22:37:29;;;;;;;9.33;8.53;;;11.00;46.30;;;;;;10417369;28;20238;-69
2022/11/05 22:42:32;;;;;;;8.80;8.00;;;10.90;46.20;;;;;;10422947;28;20780;-70
2022/11/05 22:47:36;;;;;;;10.57;9.67;;;10.90;46.30;;;;;;10419606;28;20333;-67
2022/11/05 22:52:40;;;;;;;8.00;7.30;;;10.80;46.30;;;;;;10416766;28;20249;-68
2022/11/05 22:57:44;;;;;;;8.07;7.37;;;10.80;46.60;;;;;;10416083;28;20225;-68
2022/11/05 23:02:47;;;;;;;8.20;7.40;;;10.70;46.50;;;;;;10417909;28;20226;-68
2022/11/05 23:13:12;;;;;;;8.73;7.93;;;10.70;46.50;;;;;;10416716;28;20229;-69
2022/11/05 23:28:58;;;;;;;8.43;7.73;;;10.60;46.60;;;;;;10417580;28;20245;-67
2022/11/05 23:34:01;;;;;;;8.67;7.90;;;10.60;46.40;;;;;;10408995;28;20602;-67
2022/11/05 23:39:06;;;;;;;9.63;8.73;;;10.60;46.40;;;;;;10415893;28;20713;-68
2022/11/05 23:49:30;;;;;;;7.47;6.87;;;10.50;45.70;;;;;;10413504;28;20237;-68
2022/11/05 23:54:34;;;;;;;8.40;7.70;;;10.40;46.20;;;;;;10409929;28;20915;-69
2022/11/05 23:59:37;;;;;;;8.27;7.47;;;10.30;46.10;;;;;;10414162;28;20679;-70
